Cleavesville, Missouri
Current Conditions -  °F | °C
As of 1:53 PM on Monday 26 Jan 2015 (Local Time) from KVIH Reporting Station
Clear Clear  
Wind Chill: 40°   Ceiling: Unl
Heat Index: 47°   Visibility: 10mi
Dew Point: 32°   Wind: 20mph
Humidity: 56%   Direction: 240°WSW
Pressure: 29.81"   Gusts: NA
Location:  38.3239°N, 91.6268°W
Report Text: KVIH 261953Z AUTO 24017KT 10SM CLR 08/00 A2981 RMK AO2 SLP100 T00830000
Loading
Personal Weather Stations






























Interactive Weather Map New forecast layout! Learn more

10-Day Weather Forecast

Advertisements
Track Severe Weather on mobile